Terminal Aerodrome Forecast
Issued by NWS

Home | Current Version | Previous Version | Text Only | Print | Product List | Glossary On
Versions: 1 2 3 4 5 6 7 8 9 10 11 12 13 14 15 16 17 18
000
FTUS43 KGRR 270500
TAFLAN
TAF
KLAN 270540Z 2706/2806 33011KT P6SM VCSH SCT025 OVC050
     FM271200 34012G20KT P6SM BKN050
     FM272300 34011KT P6SM SCT050=

USA.gov is the U.S. government's official web portal to all federal, state and local government web resources and services.